Time;durP1;ratioP1;P1;durP2;ratioP2;P2;SDS_P1;SDS_P2;PMS_P1;PMS_P2;Temp;Humidity;BMP_temperature;BMP_pressure;BME280_temperature;BME280_humidity;BME280_pressure;Samples;Min_cycle;Max_cycle;Signal;HPM_P1;HPM_P2
2023/08/08 00:01:43;;;;;;;5.55;2.53;;;12.10;99.90;;;;;;5025931;28;20364;-65
2023/08/08 00:04:10;;;;;;;5.03;2.58;;;12.00;99.90;;;;;;5022368;28;20080;-65
2023/08/08 00:06:36;;;;;;;4.32;2.10;;;11.90;99.90;;;;;;5029161;28;20427;-67
2023/08/08 00:09:03;;;;;;;5.03;2.15;;;11.90;99.90;;;;;;5016263;28;20053;-66
2023/08/08 00:11:29;;;;;;;4.57;2.22;;;11.80;99.90;;;;;;5022507;28;20116;-66
2023/08/08 00:13:55;;;;;;;3.42;2.00;;;11.70;99.90;;;;;;5013067;28;20398;-65
2023/08/08 00:16:21;;;;;;;4.70;2.00;;;11.70;99.90;;;;;;5024757;28;20037;-67
2023/08/08 00:18:46;;;;;;;4.55;1.95;;;11.60;99.90;;;;;;5021642;28;20021;-63
2023/08/08 00:21:12;;;;;;;2.65;1.80;;;11.60;99.90;;;;;;5018525;28;20029;-66
2023/08/08 00:23:38;;;;;;;4.28;1.90;;;11.60;99.90;;;;;;5022538;28;20060;-65
2023/08/08 00:26:03;;;;;;;8.32;2.25;;;11.50;99.90;;;;;;5022496;28;20083;-66
2023/08/08 00:28:29;;;;;;;4.68;2.47;;;11.40;99.90;;;;;;5027582;28;20435;-65
2023/08/08 00:30:55;;;;;;;8.65;2.03;;;11.40;99.90;;;;;;5020208;28;20029;-66
2023/08/08 00:33:21;;;;;;;3.47;1.83;;;11.40;99.90;;;;;;5018371;28;20029;-66
2023/08/08 00:35:46;;;;;;;4.70;2.15;;;11.40;99.90;;;;;;5028757;28;20024;-65
2023/08/08 00:38:12;;;;;;;6.38;2.13;;;11.40;99.90;;;;;;5019559;28;20030;-65
2023/08/08 00:40:37;;;;;;;4.60;2.03;;;11.30;99.90;;;;;;5016929;28;20064;-65
2023/08/08 00:43:03;;;;;;;6.82;2.50;;;11.30;99.90;;;;;;5024733;28;20513;-65
2023/08/08 00:45:29;;;;;;;6.30;2.75;;;11.30;99.90;;;;;;5024571;28;20026;-65
2023/08/08 00:47:55;;;;;;;6.00;2.65;;;11.30;99.90;;;;;;5021123;28;20025;-66
2023/08/08 00:50:21;;;;;;;7.70;2.85;;;11.30;99.90;;;;;;5017425;28;20044;-67
2023/08/08 00:52:47;;;;;;;7.10;2.78;;;11.20;99.90;;;;;;5020819;28;20030;-66
2023/08/08 00:55:14;;;;;;;3.67;2.20;;;11.10;99.90;;;;;;5017910;28;20025;-66
2023/08/08 00:57:40;;;;;;;5.20;2.42;;;11.10;99.90;;;;;;5002843;28;20049;-66
2023/08/08 01:00:09;;;;;;;10.88;2.72;;;11.10;99.90;;;;;;5021335;28;20025;-66
2023/08/08 01:02:34;;;;;;;3.20;2.13;;;11.00;99.90;;;;;;5020090;28;20113;-66
2023/08/08 01:05:00;;;;;;;7.93;2.88;;;11.00;99.90;;;;;;5017603;28;20104;-66
2023/08/08 01:07:44;;;;;;;7.28;3.40;;;11.00;99.90;;;;;;5018377;28;20037;-66
2023/08/08 01:10:15;;;;;;;7.72;2.33;;;10.90;99.90;;;;;;5019147;28;20029;-65
2023/08/08 01:12:51;;;;;;;6.53;2.33;;;10.90;99.90;;;;;;5020089;28;20532;-66
2023/08/08 01:15:18;;;;;;;5.10;2.17;;;10.80;99.90;;;;;;5016925;28;20033;-65
2023/08/08 01:17:45;;;;;;;6.60;2.10;;;10.80;99.90;;;;;;5008731;28;20037;-65
2023/08/08 01:20:14;;;;;;;2.97;2.03;;;10.80;99.90;;;;;;5012506;28;20026;-65
2023/08/08 01:22:48;;;;;;;5.30;2.60;;;10.80;99.90;;;;;;5022908;28;20672;-66
2023/08/08 01:25:13;;;;;;;5.95;2.40;;;10.80;99.90;;;;;;5022182;28;20473;-66
2023/08/08 01:27:39;;;;;;;8.60;2.95;;;10.90;99.90;;;;;;5019678;28;20045;-65
2023/08/08 01:30:07;;;;;;;5.63;2.38;;;10.90;99.90;;;;;;5025168;28;20025;-66
2023/08/08 01:32:32;;;;;;;4.35;2.53;;;11.00;99.90;;;;;;5015113;28;20041;-66
2023/08/08 01:34:58;;;;;;;5.38;2.42;;;11.10;99.90;;;;;;5017133;28;20034;-66
2023/08/08 01:37:28;;;;;;;4.75;2.50;;;11.10;99.90;;;;;;5015446;28;20029;-66
2023/08/08 01:39:58;;;;;;;4.40;3.13;;;11.20;99.90;;;;;;5014387;28;20017;-66
2023/08/08 01:42:24;;;;;;;5.35;2.20;;;11.20;99.90;;;;;;5016058;28;20029;-66
2023/08/08 01:44:50;;;;;;;2.92;2.20;;;11.30;99.90;;;;;;5012446;28;20033;-66
2023/08/08 01:47:15;;;;;;;5.38;2.30;;;11.30;99.90;;;;;;5008954;28;20403;-66
2023/08/08 01:49:41;;;;;;;6.43;2.45;;;11.30;99.90;;;;;;5009211;28;20061;-65
2023/08/08 01:52:07;;;;;;;4.13;1.90;;;11.40;99.90;;;;;;5018443;28;20399;-63
2023/08/08 01:54:32;;;;;;;5.82;2.63;;;11.40;99.90;;;;;;5019861;28;20034;-67
2023/08/08 01:56:58;;;;;;;4.28;2.55;;;11.40;99.90;;;;;;5018942;28;20067;-65
2023/08/08 01:59:23;;;;;;;3.53;2.17;;;11.40;99.90;;;;;;5012086;28;20076;-66
2023/08/08 02:01:49;;;;;;;4.93;2.13;;;11.50;99.90;;;;;;5016991;28;20025;-67
2023/08/08 02:04:15;;;;;;;4.57;2.78;;;11.40;99.90;;;;;;5020959;28;20829;-66
2023/08/08 02:06:40;;;;;;;7.28;2.33;;;11.50;99.90;;;;;;5020243;28;20025;-66
2023/08/08 02:09:07;;;;;;;6.32;2.50;;;11.50;99.90;;;;;;5017012;28;20018;-67
2023/08/08 02:11:32;;;;;;;3.65;1.83;;;11.50;99.90;;;;;;5017640;28;20116;-67
2023/08/08 02:13:58;;;;;;;4.47;2.40;;;11.50;99.90;;;;;;5020091;28;20120;-65
2023/08/08 02:16:23;;;;;;;3.63;2.10;;;11.50;99.90;;;;;;5024399;28;20042;-66
2023/08/08 02:18:49;;;;;;;2.53;1.50;;;11.50;99.90;;;;;;5023268;28;20471;-66
2023/08/08 02:21:15;;;;;;;5.13;2.08;;;11.50;99.90;;;;;;5021212;28;20028;-67
2023/08/08 02:23:40;;;;;;;6.90;2.25;;;11.50;99.90;;;;;;5021568;28;20037;-65
2023/08/08 02:26:06;;;;;;;4.28;2.83;;;11.50;99.90;;;;;;5015893;28;20501;-64
2023/08/08 02:28:31;;;;;;;4.15;2.00;;;11.50;99.90;;;;;;5019652;28;20391;-66
2023/08/08 02:30:57;;;;;;;5.75;2.33;;;11.40;99.90;;;;;;5015886;28;20464;-66
2023/08/08 02:33:23;;;;;;;5.35;2.10;;;11.40;99.90;;;;;;5018915;28;20025;-66
2023/08/08 02:35:48;;;;;;;4.55;2.33;;;11.40;99.90;;;;;;5018898;28;20029;-65
2023/08/08 02:38:14;;;;;;;4.43;2.35;;;11.30;99.90;;;;;;5023074;28;20049;-66
2023/08/08 02:40:40;;;;;;;6.20;2.03;;;11.30;99.90;;;;;;5015744;28;20026;-66
2023/08/08 02:43:05;;;;;;;3.67;2.20;;;11.10;99.90;;;;;;5016474;28;20050;-66
2023/08/08 02:45:31;;;;;;;4.45;2.58;;;11.10;99.90;;;;;;5017064;28;20034;-66
2023/08/08 02:47:56;;;;;;;2.97;1.90;;;10.90;99.90;;;;;;5015143;28;20182;-66
2023/08/08 02:50:22;;;;;;;5.20;2.22;;;10.80;99.90;;;;;;5017955;28;20108;-66
2023/08/08 02:52:47;;;;;;;5.35;2.47;;;10.70;99.90;;;;;;5020006;28;20540;-65
2023/08/08 02:55:13;;;;;;;3.40;1.90;;;10.70;99.90;;;;;;5021386;28;20163;-66
2023/08/08 02:57:39;;;;;;;3.55;2.40;;;10.60;99.90;;;;;;5018390;28;20038;-65
2023/08/08 03:00:08;;;;;;;5.63;2.40;;;10.50;99.90;;;;;;4990899;28;20060;-66
2023/08/08 03:02:33;;;;;;;7.15;3.03;;;10.50;99.90;;;;;;5013934;28;20022;-66
2023/08/08 03:04:59;;;;;;;3.92;2.60;;;10.40;99.90;;;;;;5016468;28;20071;-66
2023/08/08 03:07:25;;;;;;;4.85;2.63;;;10.40;99.90;;;;;;5017062;28;20034;-66
2023/08/08 03:09:50;;;;;;;4.03;2.53;;;10.30;99.90;;;;;;5016364;28;20042;-66
2023/08/08 03:12:16;;;;;;;3.83;2.40;;;10.30;99.90;;;;;;5021031;28;20100;-66
2023/08/08 03:14:41;;;;;;;5.10;2.75;;;10.20;99.90;;;;;;5018349;28;20029;-66
2023/08/08 03:17:07;;;;;;;4.35;2.60;;;10.20;99.90;;;;;;5020088;28;20033;-65
2023/08/08 03:19:33;;;;;;;6.65;3.05;;;10.20;99.90;;;;;;5020971;28;20120;-67
2023/08/08 03:21:58;;;;;;;7.20;3.05;;;10.10;99.90;;;;;;5020036;28;20021;-66
2023/08/08 03:24:24;;;;;;;7.13;2.70;;;10.10;99.90;;;;;;5019884;28;20489;-67
2023/08/08 03:26:49;;;;;;;3.47;2.42;;;10.00;99.90;;;;;;5017222;28;20394;-65
2023/08/08 03:29:15;;;;;;;8.52;3.00;;;10.00;99.90;;;;;;5019397;28;20033;-65
2023/08/08 03:31:41;;;;;;;4.90;3.08;;;10.00;99.90;;;;;;5020525;28;20463;-66
2023/08/08 03:34:06;;;;;;;11.93;3.33;;;10.00;99.90;;;;;;5021736;28;20033;-66
2023/08/08 03:36:32;;;;;;;10.80;3.90;;;10.00;99.90;;;;;;5019891;28;20036;-66
2023/08/08 03:38:57;;;;;;;6.15;3.15;;;9.90;99.90;;;;;;5018086;28;20029;-65
2023/08/08 03:41:23;;;;;;;4.70;3.15;;;9.90;99.90;;;;;;5015761;28;21644;-66
2023/08/08 03:43:48;;;;;;;5.63;3.58;;;9.90;99.90;;;;;;5019181;28;20677;-66
2023/08/08 03:46:14;;;;;;;6.55;3.67;;;9.90;99.90;;;;;;5018488;28;20125;-67
2023/08/08 03:48:39;;;;;;;5.20;3.70;;;9.90;99.90;;;;;;5019536;28;20036;-65
2023/08/08 03:51:06;;;;;;;6.63;3.22;;;10.00;99.90;;;;;;5019728;28;21033;-65
2023/08/08 03:53:32;;;;;;;9.25;3.42;;;10.00;99.90;;;;;;5017527;28;20022;-65
2023/08/08 03:55:58;;;;;;;7.38;3.75;;;10.10;99.90;;;;;;5019622;28;20076;-66
2023/08/08 03:58:24;;;;;;;8.43;3.92;;;10.20;99.90;;;;;;5021046;28;20029;-66
2023/08/08 04:00:49;;;;;;;7.30;3.47;;;10.10;99.90;;;;;;4995674;28;20045;-66
2023/08/08 04:03:16;;;;;;;5.05;3.40;;;10.10;99.90;;;;;;5021371;28;20763;-66
2023/08/08 04:05:48;;;;;;;6.60;3.22;;;10.10;99.90;;;;;;5018932;28;20083;-67
2023/08/08 04:08:14;;;;;;;14.95;3.53;;;10.10;99.90;;;;;;5018593;28;20487;-66
2023/08/08 04:10:40;;;;;;;7.65;3.97;;;10.00;99.90;;;;;;5015244;28;22013;-66
2023/08/08 04:13:06;;;;;;;9.13;4.00;;;10.00;99.90;;;;;;5017503;28;20028;-66
2023/08/08 04:15:31;;;;;;;11.32;3.90;;;10.00;99.90;;;;;;5022134;28;20028;-66
2023/08/08 04:17:57;;;;;;;10.63;3.50;;;10.00;99.90;;;;;;5022266;28;20433;-65
2023/08/08 04:20:23;;;;;;;8.48;4.22;;;10.10;99.90;;;;;;5019906;28;20064;-65
2023/08/08 04:22:49;;;;;;;6.03;3.72;;;10.20;99.90;;;;;;5017499;28;20033;-65
2023/08/08 04:25:15;;;;;;;6.55;3.38;;;10.20;99.90;;;;;;5019345;28;20018;-65
2023/08/08 04:27:41;;;;;;;4.90;3.50;;;10.30;99.90;;;;;;5028499;28;20506;-67
2023/08/08 04:30:07;;;;;;;11.13;3.50;;;10.30;99.90;;;;;;5018954;28;20080;-66
2023/08/08 04:32:33;;;;;;;5.47;3.78;;;10.40;99.90;;;;;;5029749;28;20246;-66
2023/08/08 04:34:58;;;;;;;9.48;3.55;;;10.40;99.90;;;;;;5023900;28;20494;-66
2023/08/08 04:37:24;;;;;;;5.78;3.00;;;10.50;99.90;;;;;;5023700;28;20034;-66
2023/08/08 04:39:49;;;;;;;5.43;3.30;;;10.60;99.90;;;;;;5017625;28;20033;-66
2023/08/08 04:42:15;;;;;;;9.02;3.60;;;10.60;99.90;;;;;;5019177;28;20037;-66
2023/08/08 04:44:40;;;;;;;6.45;3.03;;;10.70;99.90;;;;;;5014177;28;20401;-65
2023/08/08 04:47:06;;;;;;;4.15;3.17;;;10.70;99.90;;;;;;5012230;28;20029;-66
2023/08/08 04:49:31;;;;;;;4.88;3.17;;;10.80;99.90;;;;;;5017930;28;20033;-66
2023/08/08 04:51:57;;;;;;;6.10;2.70;;;10.90;99.90;;;;;;5017104;28;20052;-67
2023/08/08 04:54:23;;;;;;;7.30;2.60;;;11.00;99.90;;;;;;5014531;28;20040;-66
2023/08/08 04:56:48;;;;;;;9.40;2.83;;;11.10;99.90;;;;;;5014726;28;20101;-65
2023/08/08 04:59:14;;;;;;;5.25;2.53;;;11.20;99.90;;;;;;4993878;28;20092;-66
2023/08/08 05:01:39;;;;;;;5.95;2.40;;;11.20;99.90;;;;;;5018976;28;20025;-66
2023/08/08 05:04:05;;;;;;;3.28;2.15;;;11.30;99.90;;;;;;5018011;28;20040;-67
2023/08/08 05:06:30;;;;;;;11.98;3.25;;;11.40;99.90;;;;;;5017879;28;20040;-66
2023/08/08 05:08:56;;;;;;;5.03;2.33;;;11.40;99.90;;;;;;5018028;28;20108;-66
2023/08/08 05:11:22;;;;;;;12.55;2.15;;;11.50;99.90;;;;;;5016671;28;20065;-67
2023/08/08 05:13:48;;;;;;;4.55;2.75;;;11.60;99.90;;;;;;5021231;28;20376;-66
2023/08/08 05:16:14;;;;;;;3.78;1.98;;;11.70;99.90;;;;;;5022644;28;20027;-66
2023/08/08 05:18:40;;;;;;;3.95;2.08;;;11.80;99.90;;;;;;5027805;28;20033;-67
2023/08/08 05:21:06;;;;;;;2.35;1.63;;;11.80;99.90;;;;;;5021308;28;20052;-65
2023/08/08 05:23:32;;;;;;;2.30;1.90;;;11.90;99.90;;;;;;5025435;28;20483;-67
2023/08/08 05:25:57;;;;;;;7.10;2.00;;;12.00;99.90;;;;;;5024150;28;20100;-66
2023/08/08 05:28:23;;;;;;;3.85;1.95;;;12.00;99.90;;;;;;5022189;28;20079;-66
2023/08/08 05:30:48;;;;;;;5.03;2.05;;;12.10;99.90;;;;;;5018825;28;20041;-66
2023/08/08 05:33:14;;;;;;;6.93;1.98;;;12.10;99.90;;;;;;5017888;28;20092;-67
2023/08/08 05:35:39;;;;;;;3.40;1.77;;;12.10;99.90;;;;;;5014752;28;20026;-65
2023/08/08 05:38:05;;;;;;;10.05;2.13;;;12.20;99.90;;;;;;5015859;28;20604;-66
2023/08/08 05:40:30;;;;;;;5.45;2.00;;;12.20;99.90;;;;;;5018205;28;20033;-66
2023/08/08 05:42:56;;;;;;;4.35;1.65;;;12.20;99.90;;;;;;5018341;28;20053;-66
2023/08/08 05:45:22;;;;;;;2.20;1.80;;;12.30;99.90;;;;;;5015041;28;20037;-67
2023/08/08 05:47:47;;;;;;;2.47;1.23;;;12.40;99.90;;;;;;5018475;28;20025;-67
2023/08/08 05:50:13;;;;;;;7.47;1.98;;;12.40;99.90;;;;;;5015539;28;20041;-66
2023/08/08 05:52:38;;;;;;;4.15;1.90;;;12.40;99.90;;;;;;5018226;28;20479;-65
2023/08/08 05:55:04;;;;;;;4.80;2.13;;;12.40;99.90;;;;;;5015648;28;20398;-66
2023/08/08 05:57:30;;;;;;;3.50;1.88;;;12.50;99.90;;;;;;5015809;28;20029;-67
2023/08/08 05:59:55;;;;;;;4.05;1.80;;;12.60;99.90;;;;;;4996661;28;20414;-66
2023/08/08 06:02:21;;;;;;;3.45;2.03;;;12.60;99.90;;;;;;5013553;28;20022;-66
2023/08/08 06:04:47;;;;;;;4.70;1.73;;;12.70;99.90;;;;;;5016359;28;20029;-67
2023/08/08 06:07:12;;;;;;;3.83;2.00;;;12.80;99.90;;;;;;5016863;28;20062;-66
2023/08/08 06:09:38;;;;;;;5.13;2.17;;;12.90;99.90;;;;;;5013621;28;20037;-65
2023/08/08 06:12:04;;;;;;;3.55;1.67;;;13.10;99.90;;;;;;5009678;28;20513;-66
2023/08/08 06:14:30;;;;;;;7.60;2.80;;;13.20;99.90;;;;;;5015643;28;20086;-66
2023/08/08 06:16:56;;;;;;;5.75;2.80;;;13.30;99.90;;;;;;5023221;28;20025;-67
2023/08/08 06:19:21;;;;;;;6.07;3.10;;;13.40;99.90;;;;;;5022650;28;20028;-65
2023/08/08 06:21:47;;;;;;;49.67;25.17;;;13.50;99.90;;;;;;5026945;28;20025;-64
2023/08/08 06:24:13;;;;;;;24.00;14.30;;;13.60;99.90;;;;;;5024503;28;20022;-66
2023/08/08 06:26:38;;;;;;;42.83;20.58;;;13.80;99.90;;;;;;5027134;28;20501;-66
2023/08/08 06:29:04;;;;;;;17.98;8.77;;;14.00;99.90;;;;;;5022885;28;20034;-66
2023/08/08 06:31:30;;;;;;;9.98;4.07;;;14.20;99.90;;;;;;5027771;28;20102;-66
2023/08/08 06:33:55;;;;;;;8.57;2.75;;;14.40;99.90;;;;;;5026078;28;20449;-67
2023/08/08 06:36:21;;;;;;;11.27;2.00;;;14.60;99.90;;;;;;5019206;28;20038;-66
2023/08/08 06:38:47;;;;;;;6.93;2.88;;;14.70;99.90;;;;;;5003599;28;20108;-66
2023/08/08 06:41:12;;;;;;;5.28;2.03;;;14.80;99.90;;;;;;5018419;28;20021;-66
2023/08/08 06:43:38;;;;;;;5.15;2.42;;;14.80;99.90;;;;;;5021711;28;20083;-67
2023/08/08 06:46:04;;;;;;;7.00;2.40;;;14.70;99.90;;;;;;5020317;28;20566;-67
2023/08/08 06:48:30;;;;;;;5.32;2.35;;;14.60;99.90;;;;;;5019352;28;20029;-65
2023/08/08 06:50:56;;;;;;;5.75;3.03;;;14.60;99.90;;;;;;5017423;28;20747;-67
2023/08/08 06:53:21;;;;;;;8.48;3.05;;;14.60;99.90;;;;;;5014490;28;20167;-67
2023/08/08 06:55:47;;;;;;;9.85;2.72;;;14.70;99.90;;;;;;5020570;28;20018;-66
2023/08/08 06:58:12;;;;;;;5.97;2.63;;;14.70;99.90;;;;;;5020901;28;20091;-66
2023/08/08 07:00:38;;;;;;;9.25;4.20;;;14.90;99.90;;;;;;5000235;28;20049;-66
2023/08/08 07:03:04;;;;;;;10.00;5.15;;;15.10;99.90;;;;;;5021759;28;20376;-67
2023/08/08 07:05:29;;;;;;;11.35;5.22;;;15.40;99.90;;;;;;5022287;28;20021;-66
2023/08/08 07:07:55;;;;;;;17.33;7.57;;;15.50;99.90;;;;;;5016512;28;20104;-65
2023/08/08 07:10:20;;;;;;;19.77;9.85;;;15.70;99.90;;;;;;5017712;28;20030;-66
2023/08/08 07:12:46;;;;;;;28.25;13.68;;;15.70;99.90;;;;;;5016617;28;20037;-66
2023/08/08 07:15:12;;;;;;;30.95;12.45;;;15.80;99.90;;;;;;5020381;28;20043;-66
2023/08/08 07:17:38;;;;;;;26.50;10.15;;;15.80;99.90;;;;;;5020361;28;20034;-66
2023/08/08 07:20:05;;;;;;;17.48;7.10;;;15.80;99.90;;;;;;5018223;28;20092;-67
2023/08/08 07:22:32;;;;;;;30.02;12.57;;;15.80;99.90;;;;;;5018281;28;20025;-67
2023/08/08 07:24:58;;;;;;;14.55;6.28;;;15.70;99.90;;;;;;5020173;28;20057;-66
2023/08/08 07:27:23;;;;;;;11.80;5.25;;;15.80;99.90;;;;;;5021952;28;20068;-66
2023/08/08 07:29:49;;;;;;;6.45;4.20;;;15.90;99.90;;;;;;5022689;28;20445;-66
2023/08/08 07:32:15;;;;;;;9.68;4.20;;;15.90;99.90;;;;;;5019513;28;20040;-66
2023/08/08 07:34:41;;;;;;;4.57;2.60;;;16.20;99.90;;;;;;5018988;28;20037;-67
2023/08/08 07:37:06;;;;;;;11.05;3.63;;;16.40;99.90;;;;;;5019229;28;20083;-67
2023/08/08 07:39:32;;;;;;;10.20;3.20;;;16.70;99.90;;;;;;5017017;28;20026;-65
2023/08/08 07:41:57;;;;;;;11.65;3.22;;;16.70;99.90;;;;;;5017594;28;20033;-66
2023/08/08 07:44:23;;;;;;;13.05;4.53;;;16.90;99.90;;;;;;5015137;28;20053;-66
2023/08/08 07:46:49;;;;;;;6.55;2.25;;;17.00;99.90;;;;;;5016892;28;20097;-66
2023/08/08 07:49:14;;;;;;;3.78;1.92;;;16.90;99.90;;;;;;5015817;28;20056;-66
2023/08/08 07:51:40;;;;;;;9.93;2.15;;;17.00;99.90;;;;;;5020907;28;20034;-65
2023/08/08 07:54:10;;;;;;;10.00;2.25;;;17.00;99.90;;;;;;5016907;28;20025;-66
2023/08/08 07:56:36;;;;;;;13.95;2.75;;;17.00;99.90;;;;;;5018409;28;20069;-67
2023/08/08 07:59:02;;;;;;;7.05;2.80;;;16.70;99.90;;;;;;5016843;28;20786;-66
2023/08/08 08:01:28;;;;;;;6.20;2.13;;;16.90;99.90;;;;;;5010358;28;20061;-67
2023/08/08 08:03:54;;;;;;;9.57;2.53;;;17.00;99.90;;;;;;5021216;28;20113;-66
2023/08/08 08:06:19;;;;;;;13.85;2.72;;;16.90;99.90;;;;;;5020298;28;20144;-65
2023/08/08 08:08:45;;;;;;;5.55;2.45;;;17.30;99.90;;;;;;5020941;28;20033;-67
2023/08/08 08:11:12;;;;;;;7.15;2.38;;;17.80;99.90;;;;;;5028577;28;20482;-65
2023/08/08 08:13:39;;;;;;;7.15;2.20;;;17.90;99.90;;;;;;5024756;28;20040;-66
2023/08/08 08:16:05;;;;;;;8.60;2.28;;;17.90;99.90;;;;;;5022174;28;20080;-65
2023/08/08 08:18:30;;;;;;;8.95;2.75;;;18.40;99.90;;;;;;5026848;28;20475;-66
2023/08/08 08:20:56;;;;;;;5.40;2.20;;;18.70;99.90;;;;;;5022029;28;20113;-66
2023/08/08 08:23:21;;;;;;;3.95;1.90;;;19.00;99.90;;;;;;5028875;28;20040;-67
2023/08/08 08:25:48;;;;;;;8.75;2.28;;;19.30;99.90;;;;;;5025763;28;20029;-66
2023/08/08 08:28:14;;;;;;;8.40;2.22;;;19.10;99.90;;;;;;5019118;28;20513;-66
2023/08/08 08:30:40;;;;;;;8.50;1.92;;;19.10;99.90;;;;;;5022867;28;20037;-66
2023/08/08 08:33:07;;;;;;;10.40;2.65;;;18.70;99.90;;;;;;5016438;28;20032;-66
2023/08/08 08:35:36;;;;;;;9.35;3.25;;;18.70;99.90;;;;;;5026139;28;20014;-65
2023/08/08 08:38:02;;;;;;;9.02;2.38;;;18.50;99.90;;;;;;5023267;28;20025;-65
2023/08/08 08:40:29;;;;;;;4.10;1.90;;;18.60;99.90;;;;;;5020173;28;20028;-65
2023/08/08 08:42:55;;;;;;;5.97;2.50;;;18.80;99.90;;;;;;5017943;28;20029;-65
2023/08/08 08:45:22;;;;;;;6.53;1.95;;;18.80;99.90;;;;;;5020223;28;20029;-66
2023/08/08 08:47:53;;;;;;;4.38;2.47;;;18.60;99.90;;;;;;5016866;28;20037;-66
2023/08/08 08:50:19;;;;;;;7.50;2.45;;;18.40;99.90;;;;;;5020066;28;20029;-66
2023/08/08 08:52:45;;;;;;;8.38;2.60;;;18.00;99.90;;;;;;5019141;28;20513;-65
2023/08/08 08:55:10;;;;;;;13.02;2.50;;;17.80;99.90;;;;;;5019051;28;20029;-66
2023/08/08 08:57:37;;;;;;;6.93;2.90;;;17.60;99.90;;;;;;5018304;28;20037;-65
2023/08/08 09:00:05;;;;;;;8.23;2.72;;;17.50;99.90;;;;;;4997962;28;20037;-66
2023/08/08 09:02:31;;;;;;;11.23;3.20;;;17.30;99.90;;;;;;5019034;28;20030;-66
2023/08/08 09:04:58;;;;;;;6.45;3.95;;;17.00;99.90;;;;;;5013400;28;20032;-66
2023/08/08 09:07:27;;;;;;;12.18;3.30;;;16.90;99.90;;;;;;5020132;28;20037;-66
2023/08/08 09:09:52;;;;;;;8.20;3.40;;;16.70;99.90;;;;;;5017036;28;20104;-67
2023/08/08 09:12:18;;;;;;;6.80;3.80;;;16.70;99.90;;;;;;5017372;28;20108;-66
2023/08/08 09:14:44;;;;;;;5.15;3.17;;;16.70;99.90;;;;;;5016091;28;20091;-65
2023/08/08 09:17:13;;;;;;;11.13;3.58;;;16.80;99.90;;;;;;5017926;28;20025;-66
2023/08/08 09:19:41;;;;;;;8.85;3.30;;;17.00;99.90;;;;;;5018170;28;20399;-66
2023/08/08 09:22:07;;;;;;;5.78;2.70;;;17.30;99.90;;;;;;5016041;28;20391;-66
2023/08/08 09:24:32;;;;;;;9.20;2.83;;;17.40;99.90;;;;;;5016696;28;20030;-66
2023/08/08 09:26:58;;;;;;;7.05;2.47;;;17.40;99.90;;;;;;5018128;28;20029;-66
2023/08/08 09:29:24;;;;;;;7.93;2.85;;;17.60;99.90;;;;;;5019172;28;20107;-67
2023/08/08 09:31:50;;;;;;;6.97;2.72;;;17.70;99.90;;;;;;5014373;28;20074;-67
2023/08/08 09:34:16;;;;;;;6.32;2.25;;;17.80;99.90;;;;;;5018321;28;20483;-65
2023/08/08 09:36:41;;;;;;;5.45;2.67;;;17.90;99.90;;;;;;5016417;28;20116;-65
2023/08/08 09:39:07;;;;;;;4.22;2.35;;;18.00;99.90;;;;;;5016238;28;20025;-66
2023/08/08 09:41:33;;;;;;;9.73;2.38;;;18.10;99.90;;;;;;5018789;28;20067;-66
2023/08/08 09:43:59;;;;;;;7.93;2.33;;;18.30;99.90;;;;;;5018068;28;20029;-66
2023/08/08 09:46:25;;;;;;;9.43;2.65;;;18.50;99.90;;;;;;5015522;28;20030;-66
2023/08/08 09:48:51;;;;;;;9.93;3.03;;;18.50;99.90;;;;;;5019107;28;20056;-66
2023/08/08 09:51:17;;;;;;;12.02;3.38;;;18.60;99.90;;;;;;5019279;28;20554;-66
2023/08/08 09:53:44;;;;;;;5.55;2.33;;;18.60;99.90;;;;;;5020002;28;20041;-67
2023/08/08 09:56:10;;;;;;;5.38;2.42;;;18.40;99.90;;;;;;5014697;28;20029;-67
2023/08/08 09:58:36;;;;;;;6.03;2.03;;;18.50;99.90;;;;;;5011547;28;20151;-66
2023/08/08 10:01:02;;;;;;;6.15;1.80;;;18.40;99.90;;;;;;5001271;28;20574;-66
2023/08/08 10:03:28;;;;;;;6.13;1.83;;;18.60;99.90;;;;;;5017760;28;20411;-67
2023/08/08 10:05:54;;;;;;;7.10;1.90;;;18.90;99.90;;;;;;5018692;28;20048;-66
2023/08/08 10:08:20;;;;;;;3.17;1.88;;;19.40;99.90;;;;;;5015706;28;20061;-66
2023/08/08 10:10:47;;;;;;;10.73;1.80;;;19.60;99.90;;;;;;5014525;28;20109;-66
2023/08/08 10:13:23;;;;;;;5.25;1.67;;;19.60;99.90;;;;;;5016417;28;20026;-65
2023/08/08 10:15:50;;;;;;;8.05;2.00;;;19.40;99.90;;;;;;5019217;28;20029;-65
2023/08/08 10:18:16;;;;;;;5.85;1.75;;;19.40;99.90;;;;;;5022948;28;20103;-64
2023/08/08 10:20:47;;;;;;;5.65;1.73;;;19.30;99.90;;;;;;5024968;28;20044;-66
2023/08/08 10:23:15;;;;;;;4.22;1.50;;;19.30;99.90;;;;;;5026275;28;20013;-65
2023/08/08 10:25:46;;;;;;;2.10;1.38;;;19.40;99.90;;;;;;5027232;28;20032;-66
2023/08/08 10:28:14;;;;;;;3.30;1.25;;;19.50;99.90;;;;;;5015274;28;20535;-67
2023/08/08 10:30:46;;;;;;;5.35;1.55;;;19.60;99.90;;;;;;5021418;28;20036;-66
2023/08/08 10:33:39;;;;;;;9.10;1.30;;;19.60;99.90;;;;;;5022357;28;20390;-66
2023/08/08 10:36:09;;;;;;;7.47;1.65;;;19.20;99.90;;;;;;5022037;28;20022;-66
2023/08/08 10:38:50;;;;;;;9.90;1.95;;;19.30;99.90;;;;;;5018684;28;20018;-66
2023/08/08 10:41:21;;;;;;;6.40;1.45;;;19.50;99.90;;;;;;5021019;28;20111;-69
2023/08/08 10:43:55;;;;;;;5.00;1.83;;;19.70;99.90;;;;;;5015236;28;20418;-67
2023/08/08 10:46:28;;;;;;;6.93;1.60;;;20.00;99.90;;;;;;5009177;28;20479;-67
2023/08/08 10:48:56;;;;;;;4.55;1.30;;;20.10;99.90;;;;;;5017713;28;20033;-66
2023/08/08 10:51:22;;;;;;;3.47;1.50;;;19.90;99.90;;;;;;5018057;28;20380;-66
2023/08/08 10:53:51;;;;;;;3.72;1.65;;;19.90;99.90;;;;;;5017441;28;20029;-66
2023/08/08 10:56:19;;;;;;;11.88;2.08;;;20.30;99.90;;;;;;5008974;28;20479;-67
2023/08/08 10:58:48;;;;;;;4.13;1.30;;;20.30;99.90;;;;;;5019160;28;20444;-65
2023/08/08 11:01:14;;;;;;;3.28;1.40;;;20.30;99.90;;;;;;4997647;28;20106;-66
2023/08/08 11:03:41;;;;;;;5.60;1.70;;;20.20;99.70;;;;;;5019394;28;20033;-66
2023/08/08 11:06:08;;;;;;;2.70;1.35;;;20.00;99.00;;;;;;5017340;28;20036;-66
2023/08/08 11:08:35;;;;;;;3.67;1.13;;;19.60;99.80;;;;;;5020772;28;20041;-68
2023/08/08 11:11:02;;;;;;;5.82;1.95;;;19.40;99.40;;;;;;5017663;28;20491;-67
2023/08/08 11:13:27;;;;;;;3.25;1.33;;;19.10;99.90;;;;;;5017211;28;20034;-66
2023/08/08 11:15:53;;;;;;;7.13;2.30;;;18.90;99.90;;;;;;5019311;28;20021;-66
2023/08/08 11:18:19;;;;;;;5.13;1.67;;;18.90;99.90;;;;;;5016099;28;20038;-67
2023/08/08 11:20:45;;;;;;;4.40;1.95;;;18.90;99.90;;;;;;5017878;28;20033;-66
2023/08/08 11:23:12;;;;;;;4.78;1.30;;;19.00;99.90;;;;;;5016017;28;20511;-67
2023/08/08 11:25:41;;;;;;;3.05;1.38;;;18.80;99.90;;;;;;5018622;28;20036;-66
2023/08/08 11:28:07;;;;;;;6.45;1.30;;;18.80;99.90;;;;;;5013255;28;20041;-66
2023/08/08 11:30:38;;;;;;;7.47;1.73;;;18.70;99.90;;;;;;5016912;28;20045;-67
2023/08/08 11:33:03;;;;;;;2.75;1.33;;;18.60;99.90;;;;;;5033430;28;20022;-66
2023/08/08 11:35:29;;;;;;;1.77;1.33;;;18.60;99.90;;;;;;5026994;28;20116;-67
2023/08/08 11:37:58;;;;;;;8.13;1.75;;;18.80;99.90;;;;;;5019154;28;20484;-66
2023/08/08 11:40:27;;;;;;;5.20;1.33;;;18.90;99.90;;;;;;5020947;28;20037;-66
2023/08/08 11:42:53;;;;;;;2.25;1.30;;;19.00;99.90;;;;;;5017550;28;20224;-66
2023/08/08 11:45:19;;;;;;;5.68;2.08;;;18.80;99.90;;;;;;5022314;28;20025;-67
2023/08/08 11:47:49;;;;;;;9.32;2.17;;;18.80;99.90;;;;;;5020644;28;21233;-65
2023/08/08 11:50:14;;;;;;;10.95;2.80;;;19.10;99.90;;;;;;5020798;28;20291;-65
2023/08/08 11:52:42;;;;;;;4.07;1.33;;;19.30;99.90;;;;;;5021282;28;20549;-67
2023/08/08 11:55:08;;;;;;;4.82;1.40;;;19.40;99.90;;;;;;5018239;28;20036;-67
2023/08/08 11:57:37;;;;;;;5.35;1.98;;;19.50;99.90;;;;;;5018686;28;20521;-66
2023/08/08 12:00:07;;;;;;;3.75;1.58;;;19.50;99.90;;;;;;5018394;28;20479;-67
2023/08/08 12:02:34;;;;;;;6.22;2.30;;;19.70;99.90;;;;;;5019211;28;20506;-67
2023/08/08 12:05:07;;;;;;;4.47;1.50;;;20.00;99.90;;;;;;5018139;28;20037;-67
2023/08/08 12:07:36;;;;;;;5.57;1.55;;;20.20;99.30;;;;;;5018571;28;20188;-67
2023/08/08 12:10:06;;;;;;;3.03;1.25;;;20.70;99.20;;;;;;5015648;28;20025;-66
2023/08/08 12:12:35;;;;;;;2.83;1.27;;;20.30;98.30;;;;;;5019354;28;20510;-66
2023/08/08 12:15:06;;;;;;;9.90;1.42;;;20.20;98.40;;;;;;5021691;28;20285;-66
2023/08/08 12:17:31;;;;;;;6.72;2.17;;;19.70;98.40;;;;;;5024000;28;20029;-66
2023/08/08 12:20:01;;;;;;;3.63;1.60;;;19.40;99.30;;;;;;5031215;28;20024;-67
2023/08/08 12:22:26;;;;;;;4.13;2.38;;;19.00;99.30;;;;;;5028098;28;20025;-66
2023/08/08 12:24:52;;;;;;;7.25;2.13;;;18.80;99.80;;;;;;5025399;28;20024;-66
2023/08/08 12:27:17;;;;;;;3.88;1.33;;;18.60;99.90;;;;;;5021675;28;20356;-66
2023/08/08 12:29:44;;;;;;;7.55;1.73;;;18.40;99.90;;;;;;5013077;28;20388;-66
2023/08/08 12:32:09;;;;;;;7.68;1.70;;;18.30;99.90;;;;;;5019359;28;20025;-67
2023/08/08 12:34:35;;;;;;;5.55;1.70;;;18.00;99.90;;;;;;5021302;28;20060;-67
2023/08/08 12:37:02;;;;;;;3.13;1.40;;;18.10;99.90;;;;;;5020788;28;20112;-67
2023/08/08 12:39:28;;;;;;;7.43;1.35;;;18.20;99.90;;;;;;5010043;28;20030;-66
2023/08/08 12:41:54;;;;;;;3.83;1.38;;;18.60;99.90;;;;;;5020064;28;20111;-67